Time;durP1;ratioP1;P1;durP2;ratioP2;P2;SDS_P1;SDS_P2;PMS_P1;PMS_P2;Temp;Humidity;BMP_temperature;BMP_pressure;BME280_temperature;BME280_humidity;BME280_pressure;Samples;Min_cycle;Max_cycle;Signal;HPM_P1;HPM_P2
2022/03/28 00:03:20;;;;;;;2.92;2.60;;;;;;;20.32;35.35;97781.50;10290833;28;20050;-59
2022/03/28 00:08:39;;;;;;;3.70;2.55;;;;;;;20.31;35.31;97769.06;10302205;28;20047;-59
2022/03/28 00:13:59;;;;;;;3.20;2.63;;;;;;;20.30;35.30;97773.66;10291320;28;20505;-58
2022/03/28 00:19:19;;;;;;;3.30;2.78;;;;;;;20.29;35.46;97765.88;10291322;28;20066;-58
2022/03/28 00:24:38;;;;;;;2.80;2.40;;;;;;;20.28;35.36;97754.22;10290589;28;20105;-58
2022/03/28 00:29:58;;;;;;;2.85;2.58;;;;;;;20.27;35.35;97752.66;10286757;28;20059;-59
2022/03/28 00:35:18;;;;;;;2.55;2.35;;;;;;;20.25;35.41;97754.84;10274935;28;20047;-59
2022/03/28 00:40:39;;;;;;;3.00;2.30;;;;;;;20.25;35.41;97757.56;10286774;28;20051;-58
2022/03/28 00:45:58;;;;;;;2.90;2.22;;;;;;;20.23;35.48;97746.25;10297352;28;20450;-58
2022/03/28 00:51:19;;;;;;;2.53;2.33;;;;;;;20.23;35.44;97742.72;10304482;28;20050;-59
2022/03/28 00:56:38;;;;;;;2.40;2.20;;;;;;;20.21;35.51;97737.63;10285147;28;20050;-59
2022/03/28 01:01:59;;;;;;;2.88;2.55;;;;;;;20.22;35.44;97736.53;10286981;28;20073;-58
2022/03/28 01:07:18;;;;;;;2.65;2.40;;;;;;;20.20;35.59;97730.63;10288283;28;20054;-58
2022/03/28 01:12:43;;;;;;;3.05;2.50;;;;;;;20.19;35.47;97717.38;10280586;28;20059;-59
2022/03/28 01:18:11;;;;;;;2.42;2.13;;;;;;;20.17;35.51;97720.41;10283006;28;20058;-59
2022/03/28 01:23:31;;;;;;;2.55;2.30;;;;;;;20.15;35.58;97718.00;10285095;28;20089;-59
2022/03/28 01:28:51;;;;;;;2.47;2.28;;;;;;;20.16;35.49;97713.41;10291072;28;20046;-58
2022/03/28 01:34:18;;;;;;;2.85;2.40;;;;;;;20.14;35.53;97705.56;10285743;28;20055;-59
2022/03/28 01:39:37;;;;;;;3.15;2.65;;;;;;;20.12;35.47;97696.19;10302347;28;20042;-58
2022/03/28 01:44:57;;;;;;;4.10;2.72;;;;;;;20.12;35.43;97698.88;10297006;28;20412;-59
2022/03/28 01:50:17;;;;;;;2.72;2.40;;;;;;;20.10;35.63;97692.97;10300829;28;20043;-59
2022/03/28 01:55:38;;;;;;;2.72;2.53;;;;;;;20.09;35.63;97689.47;10288060;28;20058;-58
2022/03/28 02:00:58;;;;;;;2.95;2.45;;;;;;;20.08;35.45;97687.88;10285227;28;20054;-59
2022/03/28 02:06:17;;;;;;;2.35;2.15;;;;;;;20.07;35.61;97675.47;10286299;28;20051;-59
2022/03/28 02:11:36;;;;;;;2.35;2.15;;;;;;;20.05;35.47;97669.56;10289536;28;20062;-59
2022/03/28 02:16:56;;;;;;;2.78;2.53;;;;;;;20.04;35.56;97665.25;10300184;28;20046;-58
2022/03/28 02:22:15;;;;;;;2.80;2.17;;;;;;;20.04;35.52;97672.56;10283263;28;20050;-59
2022/03/28 02:27:35;;;;;;;2.38;2.17;;;;;;;20.02;35.66;97670.16;10282097;28;20047;-58
2022/03/28 02:32:55;;;;;;;2.50;2.30;;;;;;;20.01;35.66;97659.66;10287108;28;20421;-59
2022/03/28 02:38:15;;;;;;;2.65;2.17;;;;;;;20.00;35.71;97653.44;10296896;28;20066;-59
2022/03/28 02:43:34;;;;;;;2.70;2.50;;;;;;;19.99;35.61;97651.81;10300167;28;20050;-59
2022/03/28 02:48:53;;;;;;;2.67;2.40;;;;;;;19.98;35.62;97652.94;10282739;28;20062;-59
2022/03/28 02:54:13;;;;;;;2.25;2.10;;;;;;;19.95;35.74;97635.44;10300700;28;20054;-59
2022/03/28 02:59:32;;;;;;;3.00;2.30;;;;;;;19.94;35.66;97631.13;10275924;28;20463;-59
2022/03/28 03:04:52;;;;;;;2.95;1.98;;;;;;;19.93;35.63;97629.53;10280527;28;20054;-58
2022/03/28 03:10:11;;;;;;;2.20;2.00;;;;;;;19.93;35.66;97628.72;10287807;28;20062;-58
2022/03/28 03:15:31;;;;;;;2.58;2.13;;;;;;;19.93;35.80;97637.66;10284542;28;20058;-59
2022/03/28 03:20:50;;;;;;;2.55;2.35;;;;;;;19.91;35.79;97634.44;10283909;28;20065;-59
2022/03/28 03:26:10;;;;;;;2.20;2.00;;;;;;;19.90;35.86;97638.25;10285833;28;20417;-59
2022/03/28 03:31:30;;;;;;;2.40;2.05;;;;;;;19.89;35.67;97635.84;10284754;28;20595;-59
2022/03/28 03:36:50;;;;;;;2.38;2.17;;;;;;;19.87;35.74;97630.75;10289267;28;20081;-59
2022/03/28 03:42:11;;;;;;;2.50;2.30;;;;;;;19.86;35.72;97623.75;10292479;28;20051;-59
2022/03/28 03:47:30;;;;;;;2.35;2.15;;;;;;;19.86;35.84;97622.94;10307600;28;20050;-59
2022/03/28 03:52:51;;;;;;;2.53;2.33;;;;;;;19.84;35.84;97620.56;10301759;28;20046;-58
2022/03/28 03:58:11;;;;;;;2.53;2.33;;;;;;;19.83;35.76;97618.94;10306036;28;20101;-58
2022/03/28 04:03:33;;;;;;;2.70;2.50;;;;;;;19.81;35.78;97610.34;10305657;28;20047;-59
2022/03/28 04:08:52;;;;;;;2.30;2.10;;;;;;;19.79;35.87;97609.84;10286954;28;21457;-59
2022/03/28 04:14:12;;;;;;;2.78;2.55;;;;;;;19.79;36.26;97606.34;10299385;28;20081;-58
2022/03/28 04:19:31;;;;;;;2.35;2.15;;;;;;;19.78;36.81;97605.56;10301187;28;20057;-59
2022/03/28 04:24:51;;;;;;;3.13;2.42;;;;;;;19.78;36.82;97605.56;10288878;28;20062;-58
2022/03/28 04:30:12;;;;;;;2.50;2.30;;;;;;;19.77;36.88;97603.94;10302361;28;20046;-59
2022/03/28 04:35:32;;;;;;;2.42;2.22;;;;;;;19.76;36.81;97602.34;10279236;28;20071;-59
2022/03/28 04:40:52;;;;;;;2.90;2.65;;;;;;;19.74;36.96;97596.47;10287734;28;20086;-59
2022/03/28 04:46:12;;;;;;;4.63;2.67;;;;;;;19.74;36.92;97593.75;10294071;28;20055;-58
2022/03/28 04:51:31;;;;;;;3.67;3.10;;;;;;;19.74;37.18;97596.47;10287621;28;20445;-60
2022/03/28 04:56:50;;;;;;;2.85;2.63;;;;;;;19.74;37.32;97582.94;10301195;28;20050;-59
2022/03/28 05:02:10;;;;;;;3.83;2.53;;;;;;;19.73;37.49;97589.44;10288930;28;20046;-58
2022/03/28 05:07:29;;;;;;;2.83;2.63;;;;;;;19.73;37.68;97586.75;10301311;28;20046;-60
2022/03/28 05:12:49;;;;;;;2.95;2.60;;;;;;;19.72;37.73;97580.53;10289712;28;20105;-59
2022/03/28 05:18:08;;;;;;;4.45;2.80;;;;;;;19.70;37.80;97585.41;10287314;28;20051;-59
2022/03/28 05:23:27;;;;;;;4.25;3.72;;;;;;;19.70;37.27;97579.22;10287239;28;20055;-59
2022/03/28 05:28:46;;;;;;;5.00;3.00;;;;;;;19.69;37.65;97580.31;10286178;28;20055;-59
2022/03/28 05:34:06;;;;;;;4.53;3.00;;;;;;;19.68;37.65;97584.09;10293845;28;20035;-59
2022/03/28 05:39:26;;;;;;;5.88;3.75;;;;;;;19.67;37.48;97579.81;10282801;28;20438;-59
2022/03/28 05:44:45;;;;;;;7.82;4.30;;;;;;;19.68;37.59;97573.28;10289362;28;20050;-60
2022/03/28 05:50:06;;;;;;;7.45;4.45;;;;;;;19.66;37.48;97580.91;10297159;28;20046;-59
2022/03/28 05:55:26;;;;;;;7.00;4.30;;;;;;;19.66;37.46;97578.22;10288004;28;20066;-59
2022/03/28 06:00:45;;;;;;;7.45;4.30;;;;;;;19.65;37.44;97573.94;10284091;28;20058;-59
2022/03/28 06:06:07;;;;;;;8.98;4.50;;;;;;;19.64;37.37;97577.72;10284991;28;20059;-59
2022/03/28 06:11:26;;;;;;;7.30;4.50;;;;;;;19.62;37.54;97572.63;10306810;28;20042;-59
2022/03/28 06:16:46;;;;;;;7.53;4.18;;;;;;;19.63;37.48;97576.13;10278898;28;20494;-59
2022/03/28 06:22:05;;;;;;;8.77;4.60;;;;;;;19.62;37.50;97569.13;10297409;28;20046;-59
2022/03/28 06:27:25;;;;;;;9.48;4.90;;;;;;;19.61;37.42;97570.25;10284128;28;20058;-59
2022/03/28 06:32:44;;;;;;;7.53;4.63;;;;;;;19.60;37.62;97565.91;10286747;28;20520;-59
2022/03/28 06:38:03;;;;;;;10.15;4.75;;;;;;;19.59;37.51;97565.13;10297480;28;20035;-59
2022/03/28 06:43:23;;;;;;;8.35;4.55;;;;;;;19.58;37.40;97557.31;10284733;28;20175;-59
2022/03/28 06:48:42;;;;;;;7.85;4.72;;;;;;;19.57;37.37;97556.53;10293653;28;20058;-59
2022/03/28 06:54:04;;;;;;;8.27;4.55;;;;;;;19.56;37.45;97544.09;10294909;28;20098;-59
2022/03/28 06:59:23;;;;;;;6.15;4.22;;;;;;;19.56;37.42;97547.63;10285748;28;20058;-59
2022/03/28 07:04:43;;;;;;;8.10;4.80;;;;;;;19.55;37.62;97548.72;10276024;28;20057;-59
2022/03/28 07:10:02;;;;;;;6.03;4.30;;;;;;;19.54;37.56;97539.03;10302245;28;20042;-59
2022/03/28 07:15:22;;;;;;;7.72;4.63;;;;;;;19.54;37.58;97536.31;10297787;28;20039;-59
2022/03/28 07:20:43;;;;;;;8.68;4.88;;;;;;;19.53;37.46;97534.72;10305993;28;20042;-59
2022/03/28 07:26:03;;;;;;;9.23;4.88;;;;;;;19.52;37.67;97527.72;10301930;28;20064;-59
2022/03/28 07:31:22;;;;;;;8.23;4.70;;;;;;;19.51;37.48;97511.81;10294910;28;20576;-60
2022/03/28 07:36:43;;;;;;;8.95;4.80;;;;;;;19.51;37.76;97523.41;10292094;28;20109;-59
2022/03/28 07:42:03;;;;;;;7.07;4.75;;;;;;;19.50;37.82;97508.31;10286192;28;20134;-59
2022/03/28 07:47:25;;;;;;;7.95;4.68;;;;;;;19.50;37.72;97499.38;10309232;28;20042;-59
2022/03/28 07:52:45;;;;;;;7.90;4.43;;;;;;;19.50;37.68;97488.59;10293713;28;20058;-59
2022/03/28 07:58:06;;;;;;;6.75;4.97;;;;;;;19.48;37.74;97478.09;10302000;28;20101;-59
2022/03/28 08:03:25;;;;;;;7.75;4.40;;;;;;;19.49;37.84;97490.50;10288947;28;20442;-59
2022/03/28 08:08:45;;;;;;;7.05;4.57;;;;;;;19.47;38.05;97479.19;10293395;28;20055;-59
2022/03/28 08:14:05;;;;;;;7.05;4.55;;;;;;;19.47;37.94;97476.50;10289657;28;20050;-59
2022/03/28 08:19:25;;;;;;;7.15;4.60;;;;;;;19.46;38.06;97464.06;10283487;28;20624;-59
2022/03/28 08:24:44;;;;;;;6.90;4.30;;;;;;;19.47;38.08;97473.00;10294642;28;20062;-59
2022/03/28 08:30:04;;;;;;;6.80;4.40;;;;;;;19.46;38.12;97453.25;10280743;28;20465;-59
2022/03/28 08:35:25;;;;;;;7.97;4.78;;;;;;;19.46;38.09;97450.56;10292137;28;20061;-59
2022/03/28 08:40:44;;;;;;;8.57;4.43;;;;;;;19.45;38.23;97443.56;10288452;28;20494;-59
2022/03/28 08:46:08;;;;;;;6.28;4.50;;;;;;;19.46;38.09;97441.66;10298669;28;20062;-58
2022/03/28 08:51:27;;;;;;;6.38;4.60;;;;;;;19.44;38.29;97444.66;10293403;28;20054;-59
2022/03/28 08:56:47;;;;;;;6.05;4.50;;;;;;;19.46;38.28;97441.66;10291385;28;20051;-59
2022/03/28 09:02:38;;;;;;;5.85;4.38;;;;;;;19.44;38.42;97428.47;10291103;28;20051;-57
2022/03/28 09:07:58;;;;;;;6.82;4.43;;;;;;;19.42;38.38;97419.84;10274691;28;20505;-59
2022/03/28 09:13:18;;;;;;;7.55;4.20;;;;;;;19.43;38.38;97413.38;10308850;28;20051;-59
2022/03/28 09:18:37;;;;;;;7.38;4.43;;;;;;;19.43;38.41;97413.38;10290202;28;20521;-59
2022/03/28 09:23:57;;;;;;;8.52;3.97;;;;;;;19.42;38.47;97402.84;10300219;28;20066;-59
2022/03/28 09:29:16;;;;;;;6.05;4.35;;;;;;;19.42;38.54;97413.66;10291059;28;20059;-59
2022/03/28 09:34:36;;;;;;;6.03;4.43;;;;;;;19.41;38.43;97418.28;10282402;28;20061;-59
2022/03/28 09:39:55;;;;;;;6.72;4.22;;;;;;;19.41;38.66;97391.25;10286253;28;20066;-59
2022/03/28 09:45:23;;;;;;;5.35;4.40;;;;;;;19.41;38.74;97385.84;10305623;28;20050;-59
2022/03/28 09:50:46;;;;;;;5.65;4.22;;;;;;;19.40;38.74;97365.34;10297423;28;20042;-58
2022/03/28 09:56:08;;;;;;;5.60;4.32;;;;;;;19.40;38.74;97362.63;10293339;28;20050;-59
2022/03/28 10:01:35;;;;;;;6.85;4.13;;;;;;;19.39;38.90;97344.84;10303923;28;20374;-59
2022/03/28 10:06:56;;;;;;;5.95;4.85;;;;;;;19.39;38.85;97335.94;10286778;28;20046;-58
2022/03/28 10:12:18;;;;;;;5.30;4.00;;;;;;;19.40;38.83;97330.22;10277951;28;20050;-59
2022/03/28 10:17:38;;;;;;;6.80;4.53;;;;;;;19.37;39.07;97325.44;10290734;28;20465;-59
2022/03/28 10:22:58;;;;;;;5.45;4.47;;;;;;;19.39;38.87;97311.63;10279098;28;20054;-59
2022/03/28 10:28:21;;;;;;;5.70;4.28;;;;;;;19.38;38.94;97316.22;10270825;28;20406;-58
2022/03/28 10:33:50;;;;;;;5.68;4.13;;;;;;;19.36;38.87;97297.59;10284374;28;20053;-59
2022/03/28 10:39:28;;;;;;;;;;;;;;;19.38;39.20;97300.00;10287698;28;20055;-59
2022/03/28 10:45:05;;;;;;;5.20;4.23;;;;;;;19.36;39.19;97286.00;10310740;28;19929;-59
2022/03/28 10:50:28;;;;;;;5.03;4.07;;;;;;;19.36;38.81;97283.31;10293718;28;20063;-59
2022/03/28 10:55:52;;;;;;;5.30;4.22;;;;;;;19.37;39.03;97266.00;10308538;28;20034;-59
2022/03/28 11:01:17;;;;;;;5.43;4.50;;;;;;;19.36;38.98;97259.00;10292485;28;20054;-59
2022/03/28 11:06:52;;;;;;;6.15;4.30;;;;;;;19.36;39.06;97240.09;10301922;28;20786;-59
2022/03/28 11:12:33;;;;;;;5.55;4.07;;;;;;;19.35;39.17;97230.41;10300494;28;20046;-58
2022/03/28 11:18:02;;;;;;;4.50;4.07;;;;;;;19.36;39.11;97226.56;10296623;28;20042;-59
2022/03/28 11:23:22;;;;;;;5.25;4.00;;;;;;;19.34;38.89;97212.59;10291669;28;20106;-58
2022/03/28 11:28:42;;;;;;;6.38;3.95;;;;;;;19.34;39.19;97205.28;10291622;28;20047;-59
2022/03/28 11:34:07;;;;;;;4.25;3.53;;;;;;;19.33;39.16;97190.19;10297494;28;20046;-59
2022/03/28 11:39:27;;;;;;;6.70;4.07;;;;;;;19.34;39.11;97180.16;10284438;28;20107;-59
2022/03/28 11:44:47;;;;;;;4.40;3.95;;;;;;;19.34;39.27;97174.75;10292476;28;20057;-59
2022/03/28 11:50:08;;;;;;;5.55;4.00;;;;;;;19.34;39.19;97174.75;10290519;28;20051;-59
2022/03/28 11:55:29;;;;;;;5.50;3.95;;;;;;;19.34;39.11;97166.66;10303761;28;20035;-58
2022/03/28 12:00:49;;;;;;;4.22;3.83;;;;;;;19.33;39.18;97151.56;10292896;28;20059;-59
2022/03/28 12:06:09;;;;;;;5.68;4.07;;;;;;;19.33;39.13;97143.47;10289744;28;20051;-58
2022/03/28 12:11:28;;;;;;;4.57;3.80;;;;;;;19.33;39.25;97130.75;10302642;28;20059;-59
2022/03/28 12:16:50;;;;;;;4.20;3.60;;;;;;;19.32;39.26;97118.34;10292652;28;20556;-59
2022/03/28 12:22:21;;;;;;;4.50;3.85;;;;;;;19.32;39.14;97106.75;10305827;28;20039;-59
2022/03/28 12:27:41;;;;;;;4.78;3.90;;;;;;;19.32;39.27;97091.31;10286696;28;20073;-59
2022/03/28 12:33:19;;;;;;;4.63;3.70;;;;;;;19.33;39.21;97089.44;10292295;28;20073;-59
2022/03/28 12:38:42;;;;;;;4.35;3.92;;;;;;;19.32;39.14;97080.53;10282771;28;20615;-59
2022/03/28 12:44:02;;;;;;;4.55;3.83;;;;;;;19.31;39.19;97073.53;10285834;28;20501;-59
2022/03/28 12:49:23;;;;;;;4.10;3.65;;;;;;;19.33;39.25;97062.44;10295516;28;20055;-59
2022/03/28 12:54:42;;;;;;;4.90;3.45;;;;;;;19.31;39.07;97051.94;10285905;28;20055;-60
2022/03/28 13:00:03;;;;;;;5.40;3.60;;;;;;;19.32;39.84;97045.41;10294004;28;20054;-60
2022/03/28 13:05:23;;;;;;;4.18;3.78;;;;;;;19.31;39.80;97035.72;10294391;28;20047;-61
2022/03/28 13:10:43;;;;;;;4.15;3.75;;;;;;;19.31;39.57;97038.44;10291889;28;20059;-60
2022/03/28 13:16:02;;;;;;;4.15;3.55;;;;;;;19.29;39.04;97008.25;10286278;28;20046;-60
2022/03/28 13:21:27;;;;;;;4.68;3.42;;;;;;;19.27;38.55;96996.16;10290977;28;20043;-60
2022/03/28 13:26:50;;;;;;;4.70;3.30;;;;;;;19.27;38.43;96994.25;10290110;28;20059;-60
2022/03/28 13:32:09;;;;;;;5.28;3.90;;;;;;;19.25;37.90;96982.97;10290573;28;20630;-60
2022/03/28 13:37:28;;;;;;;4.05;3.30;;;;;;;19.24;37.66;96984.06;10263410;28;20454;-60
2022/03/28 13:42:48;;;;;;;4.00;3.60;;;;;;;19.23;37.40;96973.59;10283992;28;20055;-60
2022/03/28 13:48:10;;;;;;;3.67;3.38;;;;;;;19.22;37.42;96963.91;10266349;28;20055;-60
2022/03/28 13:53:31;;;;;;;4.40;3.92;;;;;;;19.23;37.31;96949.28;10289096;28;20054;-60
2022/03/28 13:58:51;;;;;;;4.20;3.60;;;;;;;19.21;37.42;96933.41;10269318;28;20055;-59
2022/03/28 14:04:11;;;;;;;5.50;3.80;;;;;;;19.22;37.38;96937.69;10299115;28;20048;-60
2022/03/28 14:09:30;;;;;;;3.83;3.53;;;;;;;19.23;37.36;96930.38;10286796;28;20114;-60
2022/03/28 14:14:50;;;;;;;4.95;3.97;;;;;;;19.23;37.38;96927.66;10284678;28;20054;-60
2022/03/28 14:20:11;;;;;;;4.80;3.90;;;;;;;19.23;37.22;96919.56;10274902;28;20047;-60
2022/03/28 14:25:31;;;;;;;6.65;3.83;;;;;;;19.23;37.21;96914.97;10285069;28;20506;-60
2022/03/28 14:30:50;;;;;;;4.10;3.67;;;;;;;19.24;36.99;96904.97;10286409;28;20051;-60
2022/03/28 14:36:09;;;;;;;4.35;3.65;;;;;;;19.25;37.05;96893.84;10287321;28;20038;-59
2022/03/28 14:41:28;;;;;;;4.80;3.60;;;;;;;19.25;37.03;96883.03;10286663;28;20055;-60
2022/03/28 14:47:00;;;;;;;4.47;3.50;;;;;;;19.27;36.81;96878.13;10286065;28;20043;-60
2022/03/28 14:52:21;;;;;;;3.60;3.22;;;;;;;19.28;36.63;96868.09;10282673;28;20053;-60
2022/03/28 14:57:41;;;;;;;3.70;3.30;;;;;;;19.30;36.76;96860.47;10298169;28;20035;-59
2022/03/28 15:03:00;;;;;;;3.50;3.20;;;;;;;19.30;36.73;96849.66;10285177;28;20061;-60
2022/03/28 15:08:20;;;;;;;4.18;3.45;;;;;;;19.33;36.53;96840.91;10296283;28;20039;-59
2022/03/28 15:13:41;;;;;;;4.68;3.30;;;;;;;19.33;36.51;96833.59;10292098;28;20442;-60
2022/03/28 15:19:02;;;;;;;3.60;3.00;;;;;;;19.35;36.50;96834.06;10271299;28;20106;-60
2022/03/28 15:24:21;;;;;;;3.38;3.08;;;;;;;19.37;36.19;96822.97;10283922;28;20058;-60
2022/03/28 15:29:41;;;;;;;3.53;2.88;;;;;;;19.39;36.28;96825.34;10287377;28;20131;-60
2022/03/28 15:35:00;;;;;;;3.72;3.08;;;;;;;19.40;35.77;96814.19;10318299;28;20047;-60
2022/03/28 15:40:20;;;;;;;3.00;2.70;;;;;;;19.41;35.46;96810.38;10308144;28;20043;-60
2022/03/28 15:45:39;;;;;;;3.08;2.78;;;;;;;19.42;35.76;96801.16;10286649;28;20078;-60
2022/03/28 15:50:59;;;;;;;3.28;2.47;;;;;;;19.44;35.72;96795.44;10293947;28;20476;-60
2022/03/28 15:56:20;;;;;;;3.72;2.75;;;;;;;19.47;35.52;96789.41;10292218;28;20129;-60
2022/03/28 16:01:40;;;;;;;5.35;2.60;;;;;;;19.50;35.36;96794.94;10293611;28;20051;-61
2022/03/28 16:06:59;;;;;;;2.65;2.45;;;;;;;19.54;35.23;96784.25;10291795;28;20449;-60
2022/03/28 16:12:18;;;;;;;3.13;2.75;;;;;;;19.56;35.28;96787.44;10311752;28;20039;-61
2022/03/28 16:17:38;;;;;;;3.17;2.88;;;;;;;19.60;35.28;96774.06;10292364;28;20434;-60
2022/03/28 16:22:57;;;;;;;3.05;2.83;;;;;;;19.61;35.22;96772.97;10304726;28;20046;-61
2022/03/28 16:28:17;;;;;;;3.13;2.83;;;;;;;19.63;35.22;96765.31;10295223;28;20409;-61
2022/03/28 16:33:37;;;;;;;3.10;2.50;;;;;;;19.63;35.22;96765.31;10291553;28;20466;-61
2022/03/28 16:38:58;;;;;;;3.08;2.58;;;;;;;19.64;35.21;96766.91;10291267;28;20109;-60
2022/03/28 16:44:17;;;;;;;4.93;2.63;;;;;;;19.63;35.25;96758.00;10277385;28;20063;-59
2022/03/28 16:49:37;;;;;;;3.15;2.58;;;;;;;19.63;34.50;96759.91;10284298;28;20043;-58
2022/03/28 16:54:57;;;;;;;4.10;2.63;;;;;;;19.61;34.38;96754.84;10276530;28;20058;-58
2022/03/28 17:00:19;;;;;;;4.90;2.67;;;;;;;19.62;34.44;96744.81;10286134;28;20055;-56
2022/03/28 17:05:39;;;;;;;3.83;2.70;;;;;;;19.61;34.53;96745.94;10283790;28;20051;-60
2022/03/28 17:10:59;;;;;;;5.28;2.50;;;;;;;19.59;34.19;96754.38;10278469;28;20125;-57
2022/03/28 17:16:24;;;;;;;5.50;2.90;;;;;;;19.56;34.42;96742.31;10275356;28;20453;-59
2022/03/28 17:21:48;;;;;;;3.55;2.78;;;;;;;19.54;34.37;96736.44;10264640;28;20057;-59
2022/03/28 17:27:07;;;;;;;5.38;3.55;;;;;;;19.51;34.33;96730.88;10281898;28;20063;-62
2022/03/28 17:32:26;;;;;;;6.45;3.28;;;;;;;19.49;34.16;96742.00;10299570;28;20043;-58
2022/03/28 17:37:48;;;;;;;6.15;3.28;;;;;;;19.45;34.03;96732.97;10296437;28;20039;-59
2022/03/28 17:43:09;;;;;;;5.78;4.00;;;;;;;19.44;34.86;96723.28;10285014;28;20050;-59
2022/03/28 17:48:28;;;;;;;8.75;4.25;;;;;;;19.47;35.68;96727.25;10292851;28;20039;-58
2022/03/28 17:53:49;;;;;;;5.53;4.43;;;;;;;19.50;36.04;96724.69;10284597;28;20030;-59
2022/03/28 17:59:12;;;;;;;5.60;4.40;;;;;;;19.53;36.32;96728.66;10278830;28;20055;-59
2022/03/28 18:04:31;;;;;;;4.63;4.22;;;;;;;19.55;36.93;96721.78;10278517;28;20612;-58
2022/03/28 18:09:51;;;;;;;5.75;4.18;;;;;;;19.59;37.28;96726.56;10298152;28;20038;-58
2022/03/28 18:15:10;;;;;;;6.68;3.97;;;;;;;19.60;37.61;96718.13;10284666;28;20057;-53
2022/03/28 18:20:31;;;;;;;7.90;4.22;;;;;;;19.63;38.08;96722.09;10284036;28;20062;-54
2022/03/28 18:25:51;;;;;;;11.27;4.30;;;;;;;19.65;38.38;96730.66;10291819;28;20058;-56
2022/03/28 18:31:10;;;;;;;4.18;3.78;;;;;;;19.66;38.78;96710.59;10287091;28;20435;-52
2022/03/28 18:36:30;;;;;;;8.73;4.00;;;;;;;19.69;39.19;96710.75;10292040;28;20042;-57
2022/03/28 18:41:50;;;;;;;6.07;4.03;;;;;;;19.71;39.52;96715.84;10298136;28;20046;-52
2022/03/28 18:47:10;;;;;;;5.70;3.80;;;;;;;19.72;39.84;96714.75;10286326;28;20058;-55
2022/03/28 18:52:32;;;;;;;5.55;3.85;;;;;;;19.73;40.04;96711.72;10284962;28;20510;-57
2022/03/28 18:57:52;;;;;;;4.40;3.70;;;;;;;19.74;40.41;96709.81;10281661;28;20046;-53
2022/03/28 19:03:12;;;;;;;4.85;3.53;;;;;;;19.77;40.80;96711.06;10280154;28;20054;-57
2022/03/28 19:08:32;;;;;;;4.68;3.78;;;;;;;19.79;40.85;96711.53;10271117;28;20450;-57
2022/03/28 19:13:51;;;;;;;3.88;3.58;;;;;;;19.81;41.40;96707.38;10300597;28;20548;-58
2022/03/28 19:19:12;;;;;;;5.75;3.60;;;;;;;19.83;41.56;96710.53;10300096;28;20039;-60
2022/03/28 19:24:33;;;;;;;4.15;3.30;;;;;;;19.85;41.68;96707.50;10287810;28;20493;-58
2022/03/28 19:29:53;;;;;;;6.00;3.55;;;;;;;19.86;41.81;96699.09;10292593;28;20054;-58
2022/03/28 19:35:12;;;;;;;6.10;3.70;;;;;;;19.86;41.86;96699.09;10294467;28;20055;-58
2022/03/28 19:40:34;;;;;;;5.43;3.50;;;;;;;19.88;41.92;96699.53;10289427;28;20061;-59
2022/03/28 19:45:53;;;;;;;3.95;3.50;;;;;;;19.89;42.03;96693.00;10303594;28;20042;-58
2022/03/28 19:51:14;;;;;;;3.80;3.40;;;;;;;19.90;42.09;96696.53;10296285;28;20074;-58
2022/03/28 19:56:37;;;;;;;4.72;3.70;;;;;;;19.93;41.99;96698.53;10285209;28;20050;-58
2022/03/28 20:01:58;;;;;;;4.38;3.40;;;;;;;19.92;41.95;96692.34;10296955;28;20039;-58
2022/03/28 20:07:20;;;;;;;3.92;3.28;;;;;;;19.93;41.98;96691.25;10284066;28;20047;-58
2022/03/28 20:12:39;;;;;;;3.85;3.45;;;;;;;19.94;42.28;96679.28;10294314;28;20073;-59
2022/03/28 20:17:59;;;;;;;3.45;3.17;;;;;;;19.95;42.37;96680.91;10288724;28;20048;-58
2022/03/28 20:23:19;;;;;;;4.90;3.10;;;;;;;19.95;42.51;96672.78;10288948;28;20051;-59
2022/03/28 20:28:39;;;;;;;3.70;3.25;;;;;;;19.96;42.59;96670.88;10298026;28;20038;-58
2022/03/28 20:33:58;;;;;;;3.90;3.20;;;;;;;19.97;42.54;96663.53;10297375;28;20043;-59
2022/03/28 20:39:18;;;;;;;4.03;3.40;;;;;;;19.99;42.64;96656.66;10288561;28;20055;-58
2022/03/28 20:44:38;;;;;;;3.85;2.95;;;;;;;20.00;42.55;96647.44;10285456;28;20523;-58
2022/03/28 20:49:58;;;;;;;3.53;3.05;;;;;;;20.01;42.77;96640.91;10299427;28;20470;-58
2022/03/28 20:55:17;;;;;;;3.85;3.13;;;;;;;20.02;42.69;96634.38;10283847;28;20053;-58
2022/03/28 21:00:38;;;;;;;4.00;3.30;;;;;;;20.04;42.81;96632.16;10284854;28;20564;-58
2022/03/28 21:05:59;;;;;;;4.38;3.10;;;;;;;20.04;42.80;96634.84;10295279;28;20042;-58
2022/03/28 21:11:18;;;;;;;4.13;3.10;;;;;;;20.05;42.85;96631.03;10279418;28;20050;-58
2022/03/28 21:16:38;;;;;;;3.35;2.95;;;;;;;20.05;42.85;96612.09;10280149;28;20403;-58
2022/03/28 21:21:58;;;;;;;4.00;3.15;;;;;;;20.05;42.77;96609.41;10288651;28;20054;-57
2022/03/28 21:27:18;;;;;;;3.63;3.25;;;;;;;20.06;42.79;96602.06;10286601;28;20505;-58
2022/03/28 21:32:38;;;;;;;3.60;2.90;;;;;;;20.07;42.89;96595.53;10286404;28;20039;-58
2022/03/28 21:38:00;;;;;;;4.97;2.97;;;;;;;20.07;42.73;96590.13;10285685;28;20121;-58
2022/03/28 21:43:20;;;;;;;3.75;3.33;;;;;;;20.06;42.82;96577.75;10301088;28;20049;-57
2022/03/28 21:48:40;;;;;;;3.42;2.83;;;;;;;20.06;42.82;96580.44;10287143;28;20070;-58
2022/03/28 21:53:59;;;;;;;3.03;2.72;;;;;;;20.06;42.92;96577.75;10304166;28;20039;-58
2022/03/28 21:59:19;;;;;;;3.00;2.65;;;;;;;20.07;42.77;96584.72;10286731;28;20058;-58
2022/03/28 22:04:38;;;;;;;3.13;2.63;;;;;;;20.06;42.74;96570.41;10290275;28;20050;-59
2022/03/28 22:09:58;;;;;;;3.83;2.80;;;;;;;20.06;42.88;96575.03;10283358;28;20105;-59
2022/03/28 22:15:17;;;;;;;3.10;2.80;;;;;;;20.06;42.71;96570.41;10294818;28;20155;-59
2022/03/28 22:20:37;;;;;;;3.88;2.83;;;;;;;20.07;42.79;96554.97;10278859;28;20494;-58
2022/03/28 22:25:57;;;;;;;2.40;2.20;;;;;;;20.05;42.79;96549.09;10283586;28;20411;-58
2022/03/28 22:31:16;;;;;;;3.05;2.70;;;;;;;20.05;42.66;96549.91;10279527;28;20055;-58
2022/03/28 22:36:35;;;;;;;3.65;2.67;;;;;;;20.05;42.78;96543.69;10285480;28;20062;-58
2022/03/28 22:41:55;;;;;;;3.17;2.63;;;;;;;20.03;42.68;96535.13;10287169;28;20058;-58
2022/03/28 22:47:14;;;;;;;3.42;2.70;;;;;;;20.03;42.58;96530.53;10293618;28;20070;-58
2022/03/28 22:52:36;;;;;;;3.78;2.83;;;;;;;20.02;42.64;96528.94;10283106;28;20050;-58
2022/03/28 22:57:56;;;;;;;2.78;2.58;;;;;;;20.01;42.61;96538.16;10297766;28;20054;-59
2022/03/28 23:03:16;;;;;;;3.10;2.80;;;;;;;20.03;42.72;96540.53;10284413;28;20039;-58
2022/03/28 23:08:35;;;;;;;2.65;2.45;;;;;;;20.01;42.75;96529.25;10287318;28;20062;-58
2022/03/28 23:13:54;;;;;;;3.15;2.80;;;;;;;20.01;42.71;96531.97;10283876;28;20047;-58
2022/03/28 23:19:14;;;;;;;2.60;2.40;;;;;;;20.00;42.65;96522.28;10298260;28;20481;-58
2022/03/28 23:24:33;;;;;;;2.60;2.40;;;;;;;20.00;42.58;96528.47;10285414;28;20046;-58
2022/03/28 23:29:54;;;;;;;3.10;2.78;;;;;;;20.00;42.70;96519.59;10284521;28;20138;-58
2022/03/28 23:35:13;;;;;;;3.25;2.53;;;;;;;19.99;42.59;96509.88;10286061;28;20078;-58
2022/03/28 23:40:33;;;;;;;2.60;2.40;;;;;;;19.97;42.60;96502.09;10281429;28;20054;-57
2022/03/28 23:45:53;;;;;;;2.78;2.47;;;;;;;19.97;42.54;96493.19;10274826;28;20058;-59
2022/03/28 23:51:12;;;;;;;2.60;2.40;;;;;;;19.97;42.67;96485.09;10282283;28;20410;-56
2022/03/28 23:56:32;;;;;;;3.03;2.60;;;;;;;19.95;42.53;96474.59;10282223;28;20050;-58
